Austin, Texas
Traffic Map
Current Weather Conditions
Austin, Texas
Broken Clouds
Broken Clouds
69°
Feels Like: 69°
Wind Chill: 69° Ceiling: 7000
Heat Index: 69° Visibility: 10mi
Dew Point: 56° Wind: 6mph
Humidity: 63% Direction: ° ()
Pressure: 30.09in Gusts: 0mph
Raw Report DataKATT 210351Z AUTO VRB05KT 10SM BKN070 21/13 A3009 RMK AO2 SLP181 T02060133
Traffic Incident Summary
Active as of:
Severity:
Category:
InformationThere was an issue retrieving the traffic information for this location. Please try a different location or try again shortly.
Advertisements
At Last! Intellicast now available for iPhone and Android